18° challenge de l'entité sonégienne - 2013


Challenge Soignies 2013

Soignies - 17° corrida de la saint-Nicolas - 2013

Dénomination   Soignies - 17° corrida de la saint-Nicolas - 2013   10 kms
Date   samedi 30 novembre 2013  
Adresse  Hall omnisport Pierre Dupont
 Rue de Cognebeau
 7060 Soignies
    Voir carte d'accès
Contact

 olivier Trigallez

  

   067/347.343
Courses  10 kms
 
 
Inscriptions    
Parcours    Parcours asphalté. Course urbaine.  

        





°

Course : 10 kms
Document PDF de la course
Pla. Pl.Cat Dossard Nom                       Catégorie     Temps     Course   Vitesse Min/Km
_____________________________________________________________________________________________
1 1 20 VAN LIERDE Philip Seniors 00:33:40 10 kms 18.623 3:13
2 2 525 DENIS Kevin Seniors 00:34:50 10 kms 18.000 3:20
3 1 439 DUPONT Eddy Vétérans 1 00:35:01 10 kms 17.905 3:21
4 3 526 SONCK Raphaël Seniors 00:35:11 10 kms 17.820 3:22
5 4 597 MAHIA Sébastien Seniors 00:35:56 10 kms 17.448 3:26
6 5 227 TERNET Vincent Seniors 00:36:01 10 kms 17.408 3:26
7 6 567 JOHNSON Spencer Seniors 00:36:15 10 kms 17.296 3:28
8 7 106 BOURDJI Sabri Seniors 00:36:18 10 kms 17.272 3:28
9 8 458 PAQUET Olivier Seniors 00:36:40 10 kms 17.099 3:30
10 2 21 PLATBROOD Paul Vétérans 1 00:37:03 10 kms 16.923 3:32
11 3 105 CAVYN Jean-Philippe Vétérans 1 00:37:17 10 kms 16.817 3:34
12 4 78 LEBEAU Sébastien Vétérans 1 00:37:19 10 kms 16.802 3:34
13 9 450 FOUSS François Seniors 00:37:41 10 kms 16.638 3:36
14 10 521 CHAINAYE Philippe Seniors 00:37:52 10 kms 16.558 3:37
15 5 457 PACQUET Dominique Vétérans 1 00:37:59 10 kms 16.507 3:38
16 11 174 WILLEMS Günter Seniors 00:38:35 10 kms 16.250 3:41
17 12 469 GIVRON Régis Seniors 00:38:43 10 kms 16.194 3:42
18 6 505 DURANT Patrick Vétérans 1 00:38:49 10 kms 16.152 3:42
19 7 339 ROMANI Fabien Vétérans 1 00:38:52 10 kms 16.132 3:43
20 8 137 LELIEVRE Thierry Vétérans 1 00:39:00 10 kms 16.076 3:43
21 13 81 NICAISE Gary Seniors 00:39:09 10 kms 16.015 3:44
22 14 33 FOURMANOIR Michaël Seniors 00:39:21 10 kms 15.933 3:45
23 1 89 CRAPS Paul Vétérans 2 00:39:36 10 kms 15.833 3:47
24 15 197 CALOZET Julien Seniors 00:39:42 10 kms 15.793 3:47
25 9 352 PILLON Philippe Vétérans 1 00:39:45 10 kms 15.773 3:48
26 2 491 GULLOTTA Antonino Vétérans 2 00:39:48 10 kms 15.753 3:48
27 3 19 PRAET Jean-Paul Vétérans 2 00:39:51 10 kms 15.734 3:48
28 1 568 MCLAREN Colin Espoirs 00:40:17 10 kms 15.564 3:51
29 4 225 BEIGNE Francis Vétérans 2 00:40:19 10 kms 15.551 3:51
30 16 559 RASNEUR Sylvain Seniors 00:40:24 10 kms 15.519 3:51
31 10 28 LENGLAIS Frank Vétérans 1 00:40:27 10 kms 15.500 3:52
32 17 53 BESCHIN Orlando Seniors 00:40:31 10 kms 15.475 3:52
33 18 533 YUMUJAK Hasan Seniors 00:40:37 10 kms 15.437 3:53
34 5 1 TEGAS Giovanni Vétérans 2 00:40:49 10 kms 15.361 3:54
35 11 323 HAZARD Thierry Vétérans 1 00:41:01 10 kms 15.286 3:55
36 12 556 GANA Jean-Thierry Vétérans 1 00:41:09 10 kms 15.236 3:56
37 19 138 MULPAS Cédric Seniors 00:41:14 10 kms 15.206 3:56
38 13 219 TIMMERMANS David Vétérans 1 00:41:17 10 kms 15.187 3:57
39 14 140 POTTIEZ Philippe Vétérans 1 00:41:29 10 kms 15.114 3:58
40 6 544 DEREUME Pascal Vétérans 2 00:41:34 10 kms 15.084 3:58
41 20 531 STILITE Mikaël Seniors 00:41:37 10 kms 15.066 3:58
42 1 502 HUME Yvan Vétérans 3 00:41:39 10 kms 15.054 3:59
43 7 365 DIEPENDAELE Rudi Vétérans 2 00:41:42 10 kms 15.035 3:59
44 8 7 RICOUR Serge Vétérans 2 00:41:44 10 kms 15.023 3:59
45 2 11 DE WINTER Thibaut Espoirs 00:41:46 10 kms 15.011 3:59
46 9 464 DESADELEER ? Vétérans 2 00:41:51 10 kms 14.982 4:00
47 15 454 DESTREBECQ David Vétérans 1 00:41:55 10 kms 14.958 4:00
48 21 343 LOTERMAN Stéphane Seniors 00:41:57 10 kms 14.946 4:00
49 16 468 QUINTEA Daniel Vétérans 1 00:42:01 10 kms 14.922 4:01
50 17 327 DE PAUW Christophe Vétérans 1 00:42:04 10 kms 14.904 4:01
51 2 224 DI PASQUALE Santino Vétérans 3 00:42:29 10 kms 14.758 4:03
52 18 32 RICOUR Hervé Vétérans 1 00:42:44 10 kms 14.672 4:05
53 10 221 HORLAIT Jean-Luc Vétérans 2 00:42:49 10 kms 14.643 4:05
54 11 459 FLEURY Philippe Vétérans 2 00:42:56 10 kms 14.604 4:06
55 12 465 DE KERCHOVE Fabrice Vétérans 2 00:43:14 10 kms 14.502 4:08
56 19 529 STILITE Frank Vétérans 1 00:43:18 10 kms 14.480 4:08
57 20 349 MENDES Antonio Vétérans 1 00:43:21 10 kms 14.463 4:08
58 22 59 CASTAGNA Tony Seniors 00:43:24 10 kms 14.447 4:09
59 23 451 SOARES DA COSTA David Seniors 00:43:32 10 kms 14.402 4:09
60 24 501 DESCAMPS Tangui Seniors 00:43:36 10 kms 14.380 4:10
61 25 134 VANCO Manu Seniors 00:43:41 10 kms 14.353 4:10
62 21 485 FARCAS Petru Vétérans 1 00:43:44 10 kms 14.336 4:11
63 13 474 COCHIN Pierre Vétérans 2 00:43:51 10 kms 14.298 4:11
64 26 69 SCUBLA Michaël Seniors 00:44:04 10 kms 14.228 4:13
65 22 76 MARCELLE Grégory Vétérans 1 00:44:06 10 kms 14.217 4:13
66 3 222 BRISME Cédric Espoirs 00:44:12 10 kms 14.185 4:13
67 27 514 ROMBAUT Jean-François Seniors 00:44:15 10 kms 14.169 4:14
68 3 145 BAOUCHE Mezian Vétérans 3 00:44:24 10 kms 14.121 4:14
69 28 569 DRUART Yves Seniors 00:44:30 10 kms 14.089 4:15
70 29 318 TILTE Benoît Seniors 00:44:33 10 kms 14.074 4:15
71 14 504 LUNELLI Diego Vétérans 2 00:44:37 10 kms 14.053 4:16
72 15 484 DENDAL Olivier Vétérans 2 00:44:40 10 kms 14.037 4:16
73 4 99 VIDICK Jean-Luc Vétérans 3 00:44:42 10 kms 14.026 4:16
74 1 100 ALEXANDRE Françoise Aînées 3 00:44:45 10 kms 14.011 4:16 75 23 147 GERIN Eric Vétérans 1 00:44:48 10 kms 13.995 4:17 76 24 492 RODIA Angelo Vétérans 1 00:44:51 10 kms 13.979 4:17 77 30 575 CHARASSON Olivier Seniors 00:44:58 10 kms 13.943 4:18 78 1 596 CAPPELLE Stéphanie Dames 00:45:01 10 kms 13.928 4:18 79 4 508 VELGHE Alan Espoirs 00:45:05 10 kms 13.907 4:18 80 31 61 BROGNEZ Laurent Seniors 00:45:07 10 kms 13.897 4:19 81 25 518 MICELI Frédéric Vétérans 1 00:45:11 10 kms 13.876 4:19 82 5 576 CLAYTON-HURST RORY Espoirs 00:45:14 10 kms 13.861 4:19 83 32 328 GHISOLAND Alfred Seniors 00:45:16 10 kms 13.851 4:19 84 2 241 PARISIS Marie-Christine Aînées 3 00:45:19 10 kms 13.835 4:20 85 26 25 HORLAIT Didier Vétérans 1 00:45:22 10 kms 13.820 4:20 86 33 493 DEGROOTE Nicolas Seniors 00:45:25 10 kms 13.805 4:20 87 34 321 MABILLE Olivier Seniors 00:45:27 10 kms 13.795 4:20 88 5 338 VAN EERDEWEGH André Vétérans 3 00:45:32 10 kms 13.770 4:21 89 16 9 DE WINTER Joël Vétérans 2 00:45:37 10 kms 13.744 4:21 90 27 151 LETELLIER Jean-Luc Vétérans 1 00:45:50 10 kms 13.680 4:23 91 35 565 HERPOEL Nicolas Seniors 00:45:54 10 kms 13.660 4:23 92 17 341 JUGNON Michel Vétérans 2 00:45:59 10 kms 13.635 4:24 93 28 453 DRUART Olivier Vétérans 1 00:46:17 10 kms 13.546 4:25 94 2 476 LAFORGE Alice Dames 00:46:24 10 kms 13.512 4:26 95 36 475 MODART Paul Seniors 00:46:26 10 kms 13.503 4:26 96 37 478 HEURION Bertrand Seniors 00:46:38 10 kms 13.445 4:27 97 38 452 TORRES MIRALLES Félix Seniors 00:46:42 10 kms 13.426 4:28 98 29 157 LEMAIRE Vincent Vétérans 1 00:46:56 10 kms 13.359 4:29 99 30 87 HAULAIT Alain Vétérans 1 00:46:58 10 kms 13.349 4:29 100 18 324 MINNE Serge Vétérans 2 00:47:00 10 kms 13.340 4:29 101 3 85 DAUBERSY Audry Dames 00:47:02 10 kms 13.330 4:30 102 39 82 LIMBOURG Nicolas Seniors 00:47:03 10 kms 13.326 4:30 103 19 479 DUTRY Jean-Marc Vétérans 2 00:47:08 10 kms 13.302 4:30 104 20 77 DE WULF Luc Vétérans 2 00:47:10 10 kms 13.293 4:30 105 31 136 ABRAHAM Michel Vétérans 1 00:47:13 10 kms 13.279 4:31 106 21 149 POT Gérard Vétérans 2 00:47:15 10 kms 13.269 4:31 107 32 163 MARRA Antonio Vétérans 1 00:47:28 10 kms 13.209 4:32 108 40 610 LECRENIER Benjamin Seniors 00:47:31 10 kms 13.195 4:32 109 22 477 FOUBERT Louis-Marie Vétérans 2 00:47:34 10 kms 13.181 4:33 110 41 447 PECCENINI Stéphane Seniors 00:47:36 10 kms 13.172 4:33 111 33 561 DELCORDE Bernard Vétérans 1 00:47:38 10 kms 13.163 4:33 112 23 367 LAURENT Alain Vétérans 2 00:47:42 10 kms 13.144 4:33 113 1 188 DERONNE Christelle Aînées 2 00:47:45 10 kms 13.130 4:34 114 6 24 BEKERS Noël Vétérans 3 00:47:47 10 kms 13.121 4:34 115 42 135 VALDENAIRE Alexandre Seniors 00:47:51 10 kms 13.103 4:34 116 43 441 DEROE Erwin Seniors 00:47:56 10 kms 13.080 4:35 117 44 442 CLOQUETTE Maxime Seniors 00:48:00 10 kms 13.062 4:35 118 1 55 GUISSET Marc Vétérans 4 00:48:02 10 kms 13.053 4:35 119 34 551 DELARIVIERE Guy Vétérans 1 00:48:09 10 kms 13.021 4:36 120 24 573 DEMOUSTIER Christian Vétérans 2 00:48:14 10 kms 12.999 4:36 121 35 601 LABARRE Vincent Vétérans 1 00:48:17 10 kms 12.985 4:37 122 36 587 HOFMANS Philippe Vétérans 1 00:48:18 10 kms 12.981 4:37 123 45 192 HAUTENAUVE Benjamin Seniors 00:48:21 10 kms 12.967 4:37 124 25 585 MOREAU Philippe Vétérans 2 00:48:26 10 kms 12.945 4:38 125 46 586 RIBEAUCOURT Philippe Seniors 00:48:28 10 kms 12.936 4:38 126 26 150 FIGEYS Manuel Vétérans 2 00:48:30 10 kms 12.927 4:38 127 47 97 STILLAVATI Carlo Seniors 00:48:32 10 kms 12.918 4:38 128 27 173 BERDOUX Jacques Vétérans 2 00:48:34 10 kms 12.910 4:38 129 48 356 COOSEMANS Robin Seniors 00:48:37 10 kms 12.896 4:39 130 7 488 LAENENS Francis Vétérans 3 00:48:41 10 kms 12.879 4:39 131 28 235 DE LEENER Jean-Marie Vétérans 2 00:48:43 10 kms 12.870 4:39 132 4 456 GEERAERTS Magali Dames 00:48:48 10 kms 12.848 4:40 133 29 360 FLAMENT Eddy Vétérans 2 00:48:50 10 kms 12.839 4:40 134 30 503 JAUNIAU Daniel Vétérans 2 00:48:53 10 kms 12.826 4:40 135 31 229 MATTIEAUX Philippe Vétérans 2 00:48:55 10 kms 12.817 4:40 136 2 480 ERAERTS Willy Vétérans 4 00:49:11 10 kms 12.748 4:42 137 8 44 CESCHIN Giuseppe Vétérans 3 00:49:15 10 kms 12.730 4:42 138 37 467 MONFORT Philippe Vétérans 1 00:49:19 10 kms 12.713 4:43 139 32 554 PATERNOSTRE Jean-Jacques Vétérans 2 00:49:27 10 kms 12.679 4:43 140 3 58 VEKEMAN Bernadette Aînées 3 00:49:29 10 kms 12.670 4:44 141 9 460 DUPLOUY Philippe Vétérans 3 00:49:35 10 kms 12.645 4:44 142 33 31 IZZARELLI Donato Vétérans 2 00:49:38 10 kms 12.632 4:44 143 38 462 HUET Michaël Vétérans 1 00:49:41 10 kms 12.619 4:45 144 39 483 LIEGEOIS Olivier Vétérans 1 00:49:44 10 kms 12.607 4:45 145 10 563 LEJEUNE Jean Vétérans 3 00:49:46 10 kms 12.598 4:45 146 49 366 LAURENT William Seniors 00:49:48 10 kms 12.590 4:45 147 40 113 MINNE Etienne Vétérans 1 00:49:50 10 kms 12.581 4:46 148 11 522 BODART Claude Vétérans 3 00:49:53 10 kms 12.569 4:46 149 41 473 MULLER Olivier Vétérans 1 00:50:08 10 kms 12.506 4:47 150 34 540 DELEU Patrick Vétérans 2 00:50:13 10 kms 12.485 4:48 151 42 91 TAQUIN Frédéric Vétérans 1 00:50:18 10 kms 12.465 4:48 152 50 537 DESTREBECQ Renaud Seniors 00:50:21 10 kms 12.452 4:49 153 35 506 MATTIOLI Jean-Marie Vétérans 2 00:50:24 10 kms 12.440 4:49 154 43 75 ARGOT Vincent Vétérans 1 00:50:27 10 kms 12.428 4:49 155 6 536 VANBELLAIENGH Julien Espoirs 00:50:35 10 kms 12.395 4:50 156 44 583 BERTAU Yves Vétérans 1 00:50:40 10 kms 12.375 4:50 157 51 571 HOST Vincent Seniors 00:50:46 10 kms 12.350 4:51 158 45 40 VAN DEN BERG Frédéric Vétérans 1 00:50:47 10 kms 12.346 4:51 159 36 195 VAN HECKE Georges Vétérans 2 00:50:51 10 kms 12.330 4:51 160 37 577 TIELMANS Philippe Vétérans 2 00:50:54 10 kms 12.318 4:52 161 1 152 WHETZEL Michelle Aînées 1 00:50:58 10 kms 12.302 4:52 162 38 5 BERSON Christian Vétérans 2 00:51:00 10 kms 12.294 4:52 163 39 29 MOREAUX Patrick Vétérans 2 00:51:01 10 kms 12.290 4:52 164 2 142 TURCK Pascale Aînées 1 00:51:06 10 kms 12.270 4:53 165 40 143 DAUCHOT Jean-Luc Vétérans 2 00:51:08 10 kms 12.262 4:53 166 41 545 MALBRECQ Bernard Vétérans 2 00:51:11 10 kms 12.250 4:53 167 46 193 NDAYISABA Janvier Vétérans 1 00:51:16 10 kms 12.230 4:54 168 5 481 DUBYK Jennifer Dames 00:51:21 10 kms 12.210 4:54 169 12 574 DE RASSENFOSSE Jacques Vétérans 3 00:51:47 10 kms 12.108 4:57 170 52 588 LANDRAIN Renaud Seniors 00:51:58 10 kms 12.065 4:58 171 47 98 MARTELLEUR Yves Vétérans 1 00:52:01 10 kms 12.053 4:58 172 48 353 JACQUEMIN Benoît Vétérans 1 00:52:17 10 kms 11.992 5:00 173 53 564 DUPONT Nicolas Seniors 00:52:22 10 kms 11.973 5:00 174 54 566 ROGE Benjamin Seniors 00:52:27 10 kms 11.954 5:01 175 55 35 SENEPART Corentin Seniors 00:52:32 10 kms 11.935 5:01 176 2 472 DEMEULENAERE Sophie Aînées 2 00:52:35 10 kms 11.923 5:01 177 49 494 BOUCAU William Vétérans 1 00:52:37 10 kms 11.916 5:02 178 3 155 COUSSEMENT Valérie Aînées 1 00:52:39 10 kms 11.908 5:02 179 50 527 RONDEAU Philippe Vétérans 1 00:52:41 10 kms 11.901 5:02 180 56 440 LEFEBVRE Paulin Seniors 00:52:43 10 kms 11.893 5:02 181 57 532 DEFER Jean-Claude Seniors 00:52:46 10 kms 11.882 5:02 182 58 443 LEFEBVRE Pascal Seniors 00:52:48 10 kms 11.875 5:03 183 13 72 IULIANETTI Renato Vétérans 3 00:52:49 10 kms 11.871 5:03 184 14 144 LECOMTE Freddy Vétérans 3 00:52:51 10 kms 11.863 5:03 185 51 50 TRILOT Alain Vétérans 1 00:52:53 10 kms 11.856 5:03 186 52 589 DEMONTE Jérôme Vétérans 1 00:52:56 10 kms 11.845 5:03 187 42 362 STEENS Emiel Vétérans 2 00:53:20 10 kms 11.756 5:06 188 53 482 COLLIN Emmanuel Vétérans 1 00:53:25 10 kms 11.737 5:06 189 43 547 SARTI Mauro Vétérans 2 00:53:30 10 kms 11.719 5:07 190 44 26 DUBOIS Philippe Vétérans 2 00:54:18 10 kms 11.546 5:11 191 45 595 CICERO Epifanio Vétérans 2 00:54:23 10 kms 11.529 5:12 192 4 598 WOOLLARD Catherine Aînées 1 00:54:36 10 kms 11.483 5:13 193 54 239 COCCIASECCA Alessandro Vétérans 1 00:54:43 10 kms 11.459 5:14 194 55 95 MINNE Alain Vétérans 1 00:54:52 10 kms 11.427 5:15 195 56 581 LANGET Alain Vétérans 1 00:54:58 10 kms 11.406 5:15 196 59 23 FAYT Jonathan Seniors 00:55:02 10 kms 11.393 5:15 197 46 455 GEERAERTS Jos Vétérans 2 00:55:07 10 kms 11.375 5:16 198 47 96 RIFFAUT Alain Vétérans 2 00:55:09 10 kms 11.368 5:16 199 48 107 BOGAERT Bertrand Vétérans 2 00:55:18 10 kms 11.338 5:17 200 6 93 LEDUC Valérie Dames 00:55:22 10 kms 11.324 5:17 201 49 237 VAN LIEFFERINGE Eric Vétérans 2 00:55:24 10 kms 11.317 5:18 202 3 543 VANDERHAEGE Nathalie Aînées 2 00:55:31 10 kms 11.293 5:18 203 4 546 DEHOUST Marianne Aînées 2 00:55:37 10 kms 11.273 5:19 204 5 38 MEIRHAEGHE Ann Aînées 1 00:55:58 10 kms 11.203 5:21 205 57 139 MULPAS Fabrice Vétérans 1 00:56:35 10 kms 11.081 5:24 206 58 130 VANDEWALLE Michel Vétérans 1 00:56:36 10 kms 11.077 5:24 207 6 45 CAT Carine Aînées 1 00:56:40 10 kms 11.064 5:25 208 50 47 BONSIGNORE Vincent Vétérans 2 00:56:41 10 kms 11.061 5:25 209 15 39 PARENT José Vétérans 3 00:56:58 10 kms 11.006 5:27 210 51 326 ZAJEGA Jean-Luc Vétérans 2 00:57:05 10 kms 10.983 5:27 211 16 3 VARISELLI Franco Vétérans 3 00:57:19 10 kms 10.939 5:29 212 52 541 BAGLIONE Luigi Vétérans 2 00:57:45 10 kms 10.857 5:31 213 5 434 TEGAS Claudine Aînées 2 00:57:48 10 kms 10.847 5:31 214 60 15 DUQUESNE Stéphane Seniors 00:57:51 10 kms 10.838 5:32 215 61 4 CROQUET Sébastien Seniors 00:57:57 10 kms 10.819 5:32 216 53 580 LAVAUX Patrick Vétérans 2 00:58:03 10 kms 10.801 5:33 217 62 216 DEGANSEMAN Michaël Seniors 00:58:10 10 kms 10.779 5:33 218 54 470 SPITALERI Mario Vétérans 2 00:58:12 10 kms 10.773 5:34 219 59 579 LOMBARD Philippe Vétérans 1 00:58:24 10 kms 10.736 5:35 220 7 445 PIERART Myriam Aînées 1 00:58:26 10 kms 10.730 5:35 221 55 446 TOPART André Vétérans 2 00:58:28 10 kms 10.724 5:35 222 4 562 DOS REIS Lidia Aînées 3 00:58:32 10 kms 10.711 5:36 223 60 148 SWIDERSKI Vincent Vétérans 1 00:58:35 10 kms 10.702 5:36 224 7 500 ROLAND Coralie Dames 00:59:16 10 kms 10.579 5:40 225 8 499 ROLAND Amélie Dames 00:59:18 10 kms 10.573 5:40 226 63 36 BERTRAND Dominique Seniors 00:59:20 10 kms 10.567 5:40 227 56 34 VENDY Baudouin Vétérans 2 00:59:21 10 kms 10.564 5:40 228 9 22 LOSTE Vanessa Dames 00:59:30 10 kms 10.537 5:41 229 10 553 STASSEN Lucie Dames 00:59:40 10 kms 10.508 5:42 230 11 552 LECLERCQ Gaëlle Dames 00:59:45 10 kms 10.493 5:43 231 17 8 KESTELOOT Jacques Vétérans 3 00:59:46 10 kms 10.490 5:43 232 12 558 RASNEUR Isaline Dames 00:59:52 10 kms 10.473 5:43 233 13 314 GERARD Laurence Dames 01:00:18 10 kms 10.398 5:46 234 18 313 GERARD Henri Vétérans 3 01:00:20 10 kms 10.392 5:46 235 7 198 MAKANGA Edgar Espoirs 01:00:22 10 kms 10.386 5:46 236 57 348 WIBAUT Claude Vétérans 2 01:01:03 10 kms 10.270 5:50 237 8 334 VAN NESPEN Christel Aînées 1 01:01:10 10 kms 10.250 5:51 238 9 538 HOYOIS Laurence Aînées 1 01:01:13 10 kms 10.242 5:51 239 64 217 CROHIN Gaëtan Seniors 01:01:19 10 kms 10.225 5:52 240 61 578 DESSAUVAGES Alexandre Vétérans 1 01:01:35 10 kms 10.181 5:53 241 6 86 TERRASSE Jocelyne Aînées 2 01:02:03 10 kms 10.104 5:56 242 10 94 BODSON Laurence Aînées 1 01:02:17 10 kms 10.066 5:57 243 11 602 RIGO Florence Aînées 1 01:02:54 10 kms 9.968 6:01 244 14 593 MAROT Florence Dames 01:02:58 10 kms 9.957 6:01 245 15 591 ALLARD Audrey Dames 01:03:00 10 kms 9.952 6:01 246 12 590 ALLARD Caroline Aînées 1 01:03:03 10 kms 9.944 6:02 247 65 592 SCHEERS PETEUR Seniors 01:03:06 10 kms 9.936 6:02 248 58 448 CREYF Serge Vétérans 2 01:03:09 10 kms 9.928 6:02 249 5 232 MAUS Madeleine Aînées 3 01:03:22 10 kms 9.894 6:03 250 16 449 CREYF Julie Dames 01:03:44 10 kms 9.837 6:05 251 59 13 GASKIN Rudi Vétérans 2 01:04:19 10 kms 9.748 6:09 252 62 535 DE CONINCK Benoît Vétérans 1 01:04:22 10 kms 9.741 6:09 253 7 509 DESCAMPS Véronique Aînées 2 01:04:54 10 kms 9.661 6:12 254 60 18 T'KINDT Bruno Vétérans 2 01:05:11 10 kms 9.619 6:14 255 8 269 MICCICHE Maria Aînées 2 01:05:29 10 kms 9.574 6:15 256 19 437 MARIANO Salvatore Vétérans 3 01:05:33 10 kms 9.565 6:16 257 17 594 BOTTELIER Emilie Dames 01:06:17 10 kms 9.459 6:20 258 6 438 PALUMBO Lucia Aînées 3 01:06:43 10 kms 9.397 6:23 259 61 461 RENARD Patrick Vétérans 2 01:07:54 10 kms 9.234 6:29 260 7 42 JACOBS Claudine Aînées 3 01:07:58 10 kms 9.225 6:30 261 3 236 OPDEBEECK Willy Vétérans 4 01:08:49 10 kms 9.111 6:35 262 4 220 BRABANT Robert Vétérans 4 01:09:44 10 kms 8.991 6:40 263 20 80 SOWULA Jean Vétérans 3 01:09:48 10 kms 8.982 6:40 264 8 238 DENEUBOURG Claude Aînées 3 01:10:29 10 kms 8.895 6:44 265 9 498 MOUVET Marie-Claire Aînées 3 01:13:17 10 kms 8.555 7:00 266 13 14 DESAGRE Sabine Aînées 1 01:13:44 10 kms 8.503 7:03 267 62 17 MATANZA Salvatore Vétérans 2 01:15:27 10 kms 8.310 7:13


Challenge Soignies 2013